Time;durP1;ratioP1;P1;durP2;ratioP2;P2;SDS_P1;SDS_P2;PMS_P1;PMS_P2;Temp;Humidity;BMP_temperature;BMP_pressure;BME280_temperature;BME280_humidity;BME280_pressure;Samples;Min_cycle;Max_cycle;Signal;HPM_P1;HPM_P2
2021/08/24 00:00:15;;;;;;;7.43;4.43;;;14.50;99.90;;;;;;5131249;27;20369;-65
2021/08/24 00:02:41;;;;;;;8.73;4.80;;;14.50;99.90;;;;;;5120086;27;20059;-65
2021/08/24 00:05:08;;;;;;;9.27;5.30;;;14.50;99.90;;;;;;5132449;27;20095;-65
2021/08/24 00:07:34;;;;;;;8.73;4.60;;;14.40;99.90;;;;;;5130824;27;20426;-65
2021/08/24 00:10:00;;;;;;;6.68;4.50;;;14.40;99.90;;;;;;5131021;27;20042;-64
2021/08/24 00:12:25;;;;;;;7.00;4.68;;;14.40;99.90;;;;;;5113610;27;20042;-64
2021/08/24 00:14:51;;;;;;;8.32;4.78;;;14.40;99.90;;;;;;5131455;27;20088;-64
2021/08/24 00:17:16;;;;;;;5.85;4.47;;;14.40;99.90;;;;;;5130382;27;20100;-64
2021/08/24 00:19:42;;;;;;;6.88;4.53;;;14.40;99.90;;;;;;5132100;27;20110;-64
2021/08/24 00:22:08;;;;;;;6.28;4.80;;;14.30;99.90;;;;;;5130371;27;20035;-65
2021/08/24 00:24:33;;;;;;;7.40;4.70;;;14.30;99.90;;;;;;5132061;27;20416;-64
2021/08/24 00:26:59;;;;;;;6.97;4.82;;;14.30;99.90;;;;;;5131347;27;20046;-64
2021/08/24 00:29:24;;;;;;;5.95;4.10;;;14.20;99.90;;;;;;5131874;27;20047;-64
2021/08/24 00:31:50;;;;;;;6.25;4.43;;;14.20;99.90;;;;;;5129542;27;20039;-65
2021/08/24 00:34:15;;;;;;;6.28;4.68;;;14.20;99.90;;;;;;5130884;27;20123;-64
2021/08/24 00:36:41;;;;;;;6.95;4.88;;;14.20;99.90;;;;;;5131371;27;20039;-64
2021/08/24 00:39:06;;;;;;;10.10;5.05;;;14.10;99.90;;;;;;5131083;27;20122;-64
2021/08/24 00:41:34;;;;;;;9.05;4.80;;;14.10;99.90;;;;;;5130496;27;20057;-64
2021/08/24 00:44:00;;;;;;;6.53;4.57;;;14.10;99.90;;;;;;5130865;27;20118;-64
2021/08/24 00:46:34;;;;;;;7.15;4.70;;;14.10;99.90;;;;;;5130210;27;20134;-64
2021/08/24 00:49:16;;;;;;;6.05;4.50;;;14.10;99.90;;;;;;5130333;27;20039;-64
2021/08/24 00:51:46;;;;;;;8.38;4.95;;;14.00;99.90;;;;;;5130827;27;20110;-64
2021/08/24 00:54:16;;;;;;;7.45;5.35;;;14.00;99.90;;;;;;5129846;27;20043;-64
2021/08/24 00:56:47;;;;;;;5.38;4.78;;;14.00;99.90;;;;;;5131621;27;20046;-64
2021/08/24 00:59:13;;;;;;;5.32;4.80;;;13.90;99.90;;;;;;5128951;27;20085;-64
2021/08/24 01:01:38;;;;;;;6.63;5.57;;;13.90;99.90;;;;;;5131161;27;20074;-64
2021/08/24 01:04:04;;;;;;;6.53;5.35;;;13.90;99.90;;;;;;5130192;27;20043;-64
2021/08/24 01:06:54;;;;;;;8.40;5.90;;;13.90;99.90;;;;;;5131426;27;20035;-64
2021/08/24 01:09:38;;;;;;;8.02;5.90;;;13.90;99.90;;;;;;5127438;28;20078;-64
2021/08/24 01:12:23;;;;;;;8.75;5.40;;;13.80;99.90;;;;;;5117546;28;20043;-64
2021/08/24 01:15:00;;;;;;;6.45;5.18;;;13.80;99.90;;;;;;5129618;27;20039;-64
2021/08/24 01:17:31;;;;;;;6.60;5.28;;;13.80;99.90;;;;;;5117523;28;20054;-64
2021/08/24 01:20:11;;;;;;;5.75;5.15;;;13.80;99.90;;;;;;5130443;28;20039;-64
2021/08/24 01:22:46;;;;;;;7.18;4.97;;;13.80;99.90;;;;;;5131285;28;20031;-64
2021/08/24 01:25:25;;;;;;;5.88;5.20;;;13.70;99.90;;;;;;5121432;27;20039;-64
2021/08/24 01:28:13;;;;;;;7.53;5.30;;;13.70;99.90;;;;;;5130459;27;20035;-64
2021/08/24 01:31:17;;;;;;;8.23;6.10;;;13.70;99.90;;;;;;5130578;28;20050;-64
2021/08/24 01:34:06;;;;;;;7.13;5.65;;;13.70;99.90;;;;;;5088502;28;20047;-64
2021/08/24 01:36:35;;;;;;;7.90;5.82;;;13.60;99.90;;;;;;5128733;28;20370;-64
2021/08/24 01:39:27;;;;;;;8.85;5.78;;;13.60;99.90;;;;;;5130958;27;20499;-64
2021/08/24 01:42:14;;;;;;;8.48;6.75;;;13.60;99.90;;;;;;5101023;28;20027;-64
2021/08/24 01:44:55;;;;;;;7.47;5.78;;;13.50;99.90;;;;;;5114589;28;20039;-64
2021/08/24 01:47:36;;;;;;;9.80;5.93;;;13.50;99.90;;;;;;5129000;28;20027;-64
2021/08/24 01:50:10;;;;;;;9.37;6.43;;;13.50;99.90;;;;;;5111901;28;20376;-64
2021/08/24 01:52:41;;;;;;;8.02;5.72;;;13.50;99.90;;;;;;5129821;27;20035;-64
2021/08/24 01:55:13;;;;;;;8.13;6.35;;;13.50;99.90;;;;;;5132761;27;20042;-64
2021/08/24 01:57:50;;;;;;;7.43;5.95;;;13.50;99.90;;;;;;5128535;27;20115;-64
2021/08/24 02:00:17;;;;;;;9.70;6.82;;;13.40;99.90;;;;;;5128139;27;20051;-64
2021/08/24 02:02:50;;;;;;;8.35;6.43;;;13.40;99.90;;;;;;5133591;27;20131;-64
2021/08/24 02:05:26;;;;;;;9.50;6.82;;;13.40;99.90;;;;;;5133204;27;20111;-64
2021/08/24 02:07:59;;;;;;;8.48;7.40;;;13.40;99.90;;;;;;5101574;27;20525;-64
2021/08/24 02:10:25;;;;;;;13.00;7.38;;;13.30;99.90;;;;;;5132641;27;20096;-64
2021/08/24 02:12:53;;;;;;;9.05;6.43;;;13.40;99.90;;;;;;5135265;27;20435;-64
2021/08/24 02:15:25;;;;;;;11.63;7.65;;;13.30;99.90;;;;;;5132764;27;20114;-64
2021/08/24 02:17:51;;;;;;;;;;;13.30;99.90;;;;;;5125703;27;20045;-64
2021/08/24 02:20:23;;;;;;;10.90;6.97;;;13.30;99.90;;;;;;5133352;27;20046;-64
2021/08/24 02:22:53;;;;;;;9.55;7.38;;;13.30;99.90;;;;;;5134159;27;20047;-64
2021/08/24 02:25:23;;;;;;;8.27;6.70;;;13.30;99.90;;;;;;5133571;27;20038;-64
2021/08/24 02:28:07;;;;;;;10.80;8.48;;;13.30;99.90;;;;;;5117660;27;20043;-64
2021/08/24 02:30:38;;;;;;;8.63;7.15;;;13.30;99.90;;;;;;5133483;27;20063;-64
2021/08/24 02:33:05;;;;;;;11.65;7.20;;;13.30;99.90;;;;;;5134086;27;20035;-65
2021/08/24 02:35:43;;;;;;;11.13;7.63;;;13.30;99.90;;;;;;5119313;27;20051;-65
2021/08/24 02:38:29;;;;;;;10.13;8.07;;;13.30;99.90;;;;;;5107815;27;20039;-65
2021/08/24 02:41:24;;;;;;;10.02;7.38;;;13.30;99.90;;;;;;5133768;27;20065;-65
2021/08/24 02:44:07;;;;;;;14.07;7.70;;;13.20;99.90;;;;;;5133926;27;20571;-65
2021/08/24 02:46:38;;;;;;;8.00;7.15;;;13.20;99.90;;;;;;5130810;27;20046;-65
2021/08/24 02:49:13;;;;;;;12.30;8.98;;;13.20;99.90;;;;;;5130278;27;20035;-65
2021/08/24 02:51:41;;;;;;;14.55;9.40;;;13.20;99.90;;;;;;5133805;27;20041;-65
2021/08/24 02:54:13;;;;;;;10.15;8.63;;;13.20;99.90;;;;;;5133145;27;20043;-65
2021/08/24 02:56:39;;;;;;;9.77;7.55;;;13.20;99.90;;;;;;5115750;27;20433;-65
2021/08/24 02:59:05;;;;;;;9.98;7.60;;;13.20;99.90;;;;;;5132786;27;20057;-65
2021/08/24 03:01:30;;;;;;;9.65;7.45;;;13.20;99.90;;;;;;5132508;27;20749;-65
2021/08/24 03:03:56;;;;;;;8.35;6.88;;;13.20;99.90;;;;;;5132553;27;20051;-65
2021/08/24 03:06:22;;;;;;;7.68;6.88;;;13.20;99.90;;;;;;5132822;27;20039;-65
2021/08/24 03:08:49;;;;;;;7.88;6.53;;;13.20;99.90;;;;;;5118303;27;20039;-65
2021/08/24 03:11:20;;;;;;;9.48;7.05;;;13.10;99.90;;;;;;5132729;27;20602;-65
2021/08/24 03:13:53;;;;;;;10.47;7.17;;;13.10;99.90;;;;;;5115033;27;20126;-65
2021/08/24 03:16:29;;;;;;;7.82;6.43;;;13.10;99.90;;;;;;5131475;27;20297;-65
2021/08/24 03:18:58;;;;;;;9.60;7.40;;;13.00;99.90;;;;;;5133196;27;20034;-65
2021/08/24 03:21:31;;;;;;;9.93;6.78;;;13.00;99.90;;;;;;5133595;27;20549;-65
2021/08/24 03:23:56;;;;;;;9.13;7.00;;;13.00;99.90;;;;;;5120901;27;20459;-65
2021/08/24 03:26:26;;;;;;;9.25;7.70;;;13.00;99.90;;;;;;5131180;27;20083;-65
2021/08/24 03:28:52;;;;;;;10.68;7.97;;;13.00;99.90;;;;;;5132946;27;20031;-65
2021/08/24 03:31:19;;;;;;;10.88;7.85;;;13.00;99.90;;;;;;5133149;27;20345;-65
2021/08/24 03:33:45;;;;;;;9.32;7.90;;;13.00;99.90;;;;;;5132116;27;20463;-65
2021/08/24 03:36:12;;;;;;;13.57;7.97;;;13.00;99.90;;;;;;5131925;27;20084;-65
2021/08/24 03:38:38;;;;;;;8.27;7.38;;;13.00;99.90;;;;;;5087158;27;20043;-65
2021/08/24 03:41:09;;;;;;;8.85;7.45;;;13.00;99.90;;;;;;5131763;27;20035;-65
2021/08/24 03:43:35;;;;;;;7.82;7.03;;;13.00;99.90;;;;;;5117961;27;20087;-65
2021/08/24 03:46:02;;;;;;;7.47;6.72;;;13.00;99.90;;;;;;5130750;27;20074;-65
2021/08/24 03:48:27;;;;;;;8.70;6.47;;;13.00;99.90;;;;;;5132515;27;20039;-65
2021/08/24 03:50:53;;;;;;;9.45;6.45;;;13.00;99.90;;;;;;5131052;27;20042;-65
2021/08/24 03:53:19;;;;;;;10.38;7.03;;;12.90;99.90;;;;;;5131597;27;20111;-65
2021/08/24 03:55:44;;;;;;;8.38;6.65;;;12.90;99.90;;;;;;5132016;27;20035;-65
2021/08/24 03:58:10;;;;;;;9.38;7.20;;;12.90;99.90;;;;;;5131655;27;20043;-65
2021/08/24 04:00:36;;;;;;;8.60;6.90;;;12.90;99.90;;;;;;5120012;27;20027;-65
2021/08/24 04:03:01;;;;;;;12.20;8.27;;;12.80;99.90;;;;;;5130655;27;20373;-65
2021/08/24 04:05:27;;;;;;;13.52;7.35;;;12.90;99.90;;;;;;5113804;27;20050;-63
2021/08/24 04:07:53;;;;;;;9.18;6.88;;;12.90;99.90;;;;;;5132741;27;20041;-63
2021/08/24 04:10:19;;;;;;;8.63;6.95;;;12.80;99.90;;;;;;5131752;27;20548;-63
2021/08/24 04:12:45;;;;;;;8.43;6.82;;;12.80;99.90;;;;;;5131896;27;20057;-63
2021/08/24 04:15:11;;;;;;;9.85;7.18;;;12.80;99.90;;;;;;5131084;27;20035;-63
2021/08/24 04:17:40;;;;;;;10.50;7.10;;;12.80;99.90;;;;;;5132458;27;20108;-63
2021/08/24 04:20:09;;;;;;;8.73;7.20;;;12.80;99.90;;;;;;5130582;27;20043;-63
2021/08/24 04:22:35;;;;;;;8.80;6.82;;;12.80;99.90;;;;;;5120010;27;20698;-63
2021/08/24 04:25:00;;;;;;;7.97;6.88;;;12.80;99.90;;;;;;5109410;27;20035;-63
2021/08/24 04:27:26;;;;;;;7.47;6.30;;;12.80;99.90;;;;;;5132299;27;20554;-63
2021/08/24 04:29:52;;;;;;;9.90;6.72;;;12.80;99.90;;;;;;5130388;27;20106;-63
2021/08/24 04:32:23;;;;;;;9.65;7.20;;;12.80;99.90;;;;;;5132151;27;20494;-63
2021/08/24 04:34:49;;;;;;;11.05;7.13;;;12.80;99.90;;;;;;5117018;27;20117;-63
2021/08/24 04:37:14;;;;;;;6.75;6.05;;;12.80;99.90;;;;;;5128366;27;20115;-63
2021/08/24 04:39:40;;;;;;;8.60;6.47;;;12.80;99.90;;;;;;5130970;27;20042;-63
2021/08/24 04:42:06;;;;;;;7.30;6.60;;;12.80;99.90;;;;;;5127907;27;20035;-63
2021/08/24 04:44:31;;;;;;;9.52;6.50;;;12.80;99.90;;;;;;5110455;27;20043;-63
2021/08/24 04:46:57;;;;;;;9.50;6.55;;;12.80;99.90;;;;;;5131296;27;20531;-63
2021/08/24 04:49:23;;;;;;;11.75;8.25;;;12.80;99.90;;;;;;5112710;27;20694;-63
2021/08/24 04:51:50;;;;;;;8.85;7.00;;;12.90;99.90;;;;;;5131166;27;20035;-63
2021/08/24 04:54:17;;;;;;;8.45;7.55;;;12.90;99.90;;;;;;5132239;27;20069;-63
2021/08/24 04:56:42;;;;;;;9.27;6.68;;;12.90;99.90;;;;;;5119879;27;20050;-63
2021/08/24 04:59:08;;;;;;;10.07;6.72;;;12.90;99.90;;;;;;5111763;28;20036;-63
2021/08/24 05:01:34;;;;;;;8.63;6.05;;;13.00;99.90;;;;;;5095256;28;20408;-63
2021/08/24 05:03:59;;;;;;;8.35;6.13;;;13.00;99.90;;;;;;5116750;27;20118;-63
2021/08/24 05:06:25;;;;;;;9.55;6.78;;;13.10;99.90;;;;;;5112405;28;20663;-63
2021/08/24 05:08:51;;;;;;;7.55;6.22;;;13.10;99.90;;;;;;5130958;28;20046;-63
2021/08/24 05:11:16;;;;;;;6.78;5.28;;;13.20;99.90;;;;;;5113043;28;20039;-63
2021/08/24 05:13:42;;;;;;;8.05;5.90;;;13.20;99.90;;;;;;5095131;28;20053;-64
2021/08/24 05:16:09;;;;;;;8.10;6.13;;;13.30;99.90;;;;;;5132130;28;20040;-64
2021/08/24 05:18:35;;;;;;;7.55;6.70;;;13.30;99.90;;;;;;5132168;28;20377;-64
2021/08/24 05:21:08;;;;;;;8.35;5.97;;;13.40;99.90;;;;;;5132097;27;20043;-64
2021/08/24 05:23:34;;;;;;;7.30;5.93;;;13.40;99.90;;;;;;5131755;28;20047;-64
2021/08/24 05:26:05;;;;;;;7.80;7.00;;;13.50;99.90;;;;;;5112203;28;20045;-63
2021/08/24 05:28:30;;;;;;;7.75;5.95;;;13.50;99.90;;;;;;5134495;27;20035;-63
2021/08/24 05:30:56;;;;;;;8.18;7.38;;;13.60;99.90;;;;;;5118389;27;20403;-64
2021/08/24 05:33:21;;;;;;;8.02;6.80;;;13.70;99.90;;;;;;5133663;27;20519;-63
2021/08/24 05:35:47;;;;;;;9.77;7.10;;;13.80;99.90;;;;;;5132974;27;20484;-63
2021/08/24 05:38:13;;;;;;;6.85;5.78;;;13.80;99.90;;;;;;5120171;27;20035;-63
2021/08/24 05:40:38;;;;;;;10.95;7.47;;;13.90;99.90;;;;;;5134604;27;20054;-63
2021/08/24 05:43:04;;;;;;;6.90;6.20;;;14.00;99.90;;;;;;5134267;27;20433;-63
2021/08/24 05:45:29;;;;;;;11.50;8.00;;;14.10;99.90;;;;;;5133075;27;20076;-63
2021/08/24 05:47:55;;;;;;;6.30;5.68;;;14.20;99.90;;;;;;5133743;27;20027;-63
2021/08/24 05:50:20;;;;;;;9.32;6.22;;;14.70;99.90;;;;;;5134728;27;20084;-64
2021/08/24 05:52:46;;;;;;;6.57;5.35;;;15.40;99.90;;;;;;5115801;27;20039;-64
2021/08/24 05:55:12;;;;;;;7.00;5.00;;;16.30;99.90;;;;;;5133212;27;20042;-63
2021/08/24 05:57:37;;;;;;;8.80;4.40;;;17.30;99.90;;;;;;5133619;27;20138;-64
2021/08/24 06:00:05;;;;;;;5.75;4.43;;;18.20;99.90;;;;;;5112623;27;20054;-63
2021/08/24 06:02:31;;;;;;;6.07;4.63;;;19.20;99.90;;;;;;5115826;27;20054;-64
2021/08/24 06:04:56;;;;;;;5.53;3.80;;;20.00;99.90;;;;;;5097704;27;20043;-64
2021/08/24 06:07:22;;;;;;;7.22;4.50;;;20.40;99.90;;;;;;5129654;27;20031;-64
2021/08/24 06:09:47;;;;;;;8.02;3.97;;;20.30;99.90;;;;;;5111698;27;20127;-64
2021/08/24 06:12:13;;;;;;;7.90;4.25;;;20.40;99.90;;;;;;5132198;27;20572;-64
2021/08/24 06:14:38;;;;;;;4.97;3.00;;;20.50;99.90;;;;;;5104730;27;20039;-64
2021/08/24 06:17:04;;;;;;;4.70;3.33;;;21.50;99.90;;;;;;5131368;27;20043;-64
2021/08/24 06:19:30;;;;;;;6.43;3.55;;;22.00;99.90;;;;;;5133337;27;20044;-64
2021/08/24 06:21:57;;;;;;;5.93;3.63;;;22.70;99.90;;;;;;5129298;27;20454;-64
2021/08/24 06:24:23;;;;;;;6.35;3.00;;;22.70;99.90;;;;;;5130504;27;20031;-64
2021/08/24 06:26:49;;;;;;;5.50;3.30;;;23.00;99.90;;;;;;5123631;27;20045;-63
2021/08/24 06:29:15;;;;;;;3.90;2.90;;;22.80;99.90;;;;;;5131280;27;20418;-64
2021/08/24 06:31:43;;;;;;;6.18;3.33;;;22.20;99.90;;;;;;5131347;27;20027;-64
2021/08/24 06:34:11;;;;;;;5.20;3.40;;;21.60;99.90;;;;;;5133262;27;20101;-64
2021/08/24 07:35:40;;;;;;;6.00;2.97;;;24.00;98.70;;;;;;6137513;22;1202123;-63
2021/08/24 07:38:06;;;;;;;5.32;2.88;;;23.30;99.90;;;;;;6160013;23;20060;-63
2021/08/24 07:40:31;;;;;;;4.45;2.85;;;23.20;99.90;;;;;;6160428;23;20098;-63
2021/08/24 07:42:57;;;;;;;5.45;2.97;;;23.60;99.90;;;;;;6159292;23;20100;-63
2021/08/24 07:45:23;;;;;;;4.75;3.00;;;23.90;99.50;;;;;;6158615;23;20021;-63
2021/08/24 07:47:49;;;;;;;6.63;3.00;;;24.10;99.50;;;;;;6157308;23;20028;-63
2021/08/24 07:50:14;;;;;;;4.68;3.33;;;24.20;99.20;;;;;;6132269;23;20024;-63
2021/08/24 07:52:41;;;;;;;5.60;3.45;;;24.30;99.00;;;;;;6160590;23;20013;-63
2021/08/24 07:55:07;;;;;;;7.22;3.10;;;23.40;99.00;;;;;;6157866;23;20071;-64
2021/08/24 07:57:33;;;;;;;6.40;3.53;;;23.10;99.90;;;;;;6160687;23;20009;-62
2021/08/24 07:59:59;;;;;;;5.78;3.08;;;21.90;99.90;;;;;;6158809;23;20445;-62
2021/08/24 08:02:24;;;;;;;7.28;3.83;;;21.90;99.90;;;;;;6158719;23;20052;-62
2021/08/24 08:04:50;;;;;;;8.27;3.85;;;21.60;99.90;;;;;;6158889;23;20018;-62
2021/08/24 08:07:16;;;;;;;4.95;3.30;;;21.70;99.90;;;;;;6159475;23;20017;-62
2021/08/24 08:09:42;;;;;;;6.30;3.78;;;21.50;99.90;;;;;;6158100;23;20013;-62
2021/08/24 08:12:12;;;;;;;4.78;3.05;;;21.70;99.90;;;;;;6156022;23;20508;-62
2021/08/24 08:14:38;;;;;;;6.05;3.25;;;21.80;99.90;;;;;;6159785;23;20017;-62
2021/08/24 08:17:04;;;;;;;7.07;3.50;;;21.90;99.90;;;;;;6159453;23;20017;-62
2021/08/24 08:19:29;;;;;;;6.03;3.20;;;21.40;99.90;;;;;;6158795;23;20072;-62
2021/08/24 08:21:55;;;;;;;5.25;3.15;;;21.60;99.90;;;;;;6159906;23;20017;-63
2021/08/24 08:24:21;;;;;;;5.45;3.13;;;21.70;99.90;;;;;;6157456;23;20028;-63
2021/08/24 08:26:46;;;;;;;6.40;2.95;;;21.70;99.90;;;;;;6160175;23;20010;-63
2021/08/24 08:29:13;;;;;;;5.45;3.63;;;21.60;99.90;;;;;;6158977;23;20020;-63
2021/08/24 08:31:42;;;;;;;3.50;3.10;;;21.10;99.90;;;;;;6158648;23;20061;-63
2021/08/24 08:34:08;;;;;;;5.82;3.50;;;21.20;99.90;;;;;;6160129;23;20020;-63
2021/08/24 08:36:33;;;;;;;3.60;3.30;;;21.00;99.90;;;;;;6150732;23;20021;-63
2021/08/24 08:38:59;;;;;;;5.50;3.33;;;21.20;99.90;;;;;;6153799;23;20017;-63
2021/08/24 08:41:39;;;;;;;4.63;3.13;;;20.90;99.90;;;;;;6152224;23;20010;-63
2021/08/24 08:44:20;;;;;;;6.72;3.45;;;20.50;99.90;;;;;;6150577;23;20072;-64
2021/08/24 08:47:22;;;;;;;7.20;3.72;;;20.40;99.90;;;;;;6151335;23;20083;-63
2021/08/24 08:49:58;;;;;;;6.75;3.25;;;20.00;99.90;;;;;;6124432;23;20017;-63
2021/08/24 08:52:45;;;;;;;4.55;2.75;;;20.20;99.90;;;;;;6152630;23;20022;-63
2021/08/24 08:55:40;;;;;;;4.50;2.80;;;20.60;99.90;;;;;;6153549;23;20021;-64
2021/08/24 08:58:47;;;;;;;6.10;3.08;;;20.90;99.90;;;;;;6154238;23;20093;-66
2021/08/24 09:01:30;;;;;;;4.05;3.00;;;21.00;99.90;;;;;;6154281;23;20025;-64
2021/08/24 09:04:23;;;;;;;4.85;2.65;;;20.90;99.90;;;;;;6154542;23;20024;-64
2021/08/24 09:06:53;;;;;;;3.70;2.65;;;20.60;99.90;;;;;;6142125;23;20434;-64
2021/08/24 09:09:20;;;;;;;3.85;2.80;;;20.40;99.90;;;;;;6153146;23;20088;-64
2021/08/24 09:11:48;;;;;;;5.05;2.63;;;20.90;99.90;;;;;;6152104;23;20021;-64
2021/08/24 09:14:46;;;;;;;3.10;2.80;;;21.00;99.90;;;;;;6154498;23;20013;-63
2021/08/24 09:17:30;;;;;;;3.95;2.88;;;21.50;99.90;;;;;;6145307;23;20048;-63
2021/08/24 09:20:04;;;;;;;5.10;2.65;;;21.40;99.90;;;;;;6154581;23;20022;-64
2021/08/24 09:22:29;;;;;;;7.18;2.70;;;21.30;99.90;;;;;;6152490;23;20080;-64
2021/08/24 09:24:55;;;;;;;4.20;2.60;;;21.10;99.90;;;;;;6154061;23;20010;-64
2021/08/24 09:27:49;;;;;;;4.32;2.67;;;21.10;99.90;;;;;;6154117;23;20041;-63
2021/08/24 09:30:16;;;;;;;3.70;2.80;;;20.70;99.90;;;;;;6154335;23;20028;-63
2021/08/24 09:32:43;;;;;;;4.53;3.22;;;20.80;99.90;;;;;;6154104;23;20051;-63
2021/08/24 09:35:33;;;;;;;4.72;2.80;;;20.60;99.90;;;;;;6127321;23;20025;-63
2021/08/24 09:38:08;;;;;;;4.45;3.08;;;20.70;99.90;;;;;;6114192;23;20489;-63
2021/08/24 09:40:45;;;;;;;5.57;2.58;;;20.70;99.90;;;;;;6152734;23;20453;-63
2021/08/24 09:43:21;;;;;;;5.85;2.25;;;20.50;99.90;;;;;;6152244;23;20088;-63
2021/08/24 09:45:58;;;;;;;4.10;2.95;;;20.70;99.90;;;;;;6153828;23;20539;-63
2021/08/24 09:48:24;;;;;;;4.50;2.70;;;21.10;99.90;;;;;;6153117;23;20045;-63
2021/08/24 09:50:49;;;;;;;3.83;2.90;;;21.10;99.90;;;;;;6153359;23;20009;-63
2021/08/24 09:53:34;;;;;;;3.95;2.60;;;21.50;99.90;;;;;;6153992;23;20426;-63
2021/08/24 09:56:04;;;;;;;4.13;3.05;;;21.60;99.90;;;;;;6154107;23;20017;-64
2021/08/24 09:58:36;;;;;;;7.18;2.83;;;21.40;99.90;;;;;;6153338;23;20023;-66
2021/08/24 10:01:08;;;;;;;6.45;2.58;;;21.50;99.90;;;;;;6149828;23;20021;-67
2021/08/24 10:03:40;;;;;;;4.95;2.58;;;21.70;99.90;;;;;;6151185;23;20021;-67
2021/08/24 10:06:23;;;;;;;3.25;2.30;;;21.90;99.90;;;;;;6148750;23;20096;-67
2021/08/24 10:08:54;;;;;;;3.83;2.67;;;22.10;99.90;;;;;;6125910;23;20017;-65
2021/08/24 10:11:33;;;;;;;3.03;2.15;;;21.90;99.90;;;;;;6152234;23;20018;-67
2021/08/24 10:14:14;;;;;;;5.07;2.90;;;22.10;99.90;;;;;;6152984;23;20734;-67
2021/08/24 10:16:42;;;;;;;4.32;2.58;;;22.30;99.90;;;;;;6151347;23;20024;-65
2021/08/24 10:19:30;;;;;;;4.72;2.63;;;22.30;99.70;;;;;;6151552;23;20024;-66
2021/08/24 10:22:03;;;;;;;2.78;2.40;;;22.60;97.50;;;;;;6151603;23;20013;-66
2021/08/24 10:24:37;;;;;;;4.60;2.72;;;22.70;98.80;;;;;;6150707;23;20021;-66
2021/08/24 10:27:29;;;;;;;3.85;2.63;;;22.70;98.30;;;;;;6151412;23;20014;-66
2021/08/24 10:29:59;;;;;;;6.95;2.50;;;22.80;98.80;;;;;;6150478;23;20017;-67
2021/08/24 10:32:33;;;;;;;5.68;3.03;;;22.50;97.60;;;;;;6151408;23;20067;-68
2021/08/24 10:35:08;;;;;;;3.47;2.63;;;22.60;98.90;;;;;;6151471;23;20092;-67
2021/08/24 10:37:40;;;;;;;4.65;2.72;;;22.80;99.40;;;;;;6150852;23;20048;-66
2021/08/24 10:40:08;;;;;;;4.72;2.70;;;23.00;98.20;;;;;;6152607;23;20025;-66
2021/08/24 10:42:36;;;;;;;5.30;2.75;;;23.20;98.10;;;;;;6149628;23;20076;-67
2021/08/24 10:45:24;;;;;;;4.70;2.55;;;23.40;98.30;;;;;;6149862;23;20045;-65
2021/08/24 10:47:56;;;;;;;3.33;2.40;;;23.70;97.90;;;;;;6152265;23;20009;-65
2021/08/24 10:50:58;;;;;;;3.80;2.50;;;23.80;97.70;;;;;;6151714;23;20009;-65
2021/08/24 10:53:43;;;;;;;5.18;3.00;;;23.90;97.10;;;;;;6153315;23;20024;-65
2021/08/24 10:56:25;;;;;;;5.65;2.60;;;23.50;94.90;;;;;;6152724;23;20107;-65
2021/08/24 10:59:01;;;;;;;6.13;2.70;;;23.00;94.80;;;;;;6151231;23;20021;-65
2021/08/24 11:01:47;;;;;;;5.28;2.90;;;22.70;95.90;;;;;;6153355;23;20032;-63
2021/08/24 11:04:42;;;;;;;3.85;2.58;;;22.60;97.40;;;;;;6152830;23;20013;-62
2021/08/24 11:07:30;;;;;;;4.28;2.47;;;23.10;95.80;;;;;;6151336;23;20040;-62
2021/08/24 11:10:03;;;;;;;3.58;2.50;;;23.20;96.00;;;;;;6153037;23;20048;-62
2021/08/24 11:12:48;;;;;;;3.47;2.55;;;23.40;96.20;;;;;;6152328;23;20063;-63
2021/08/24 11:15:42;;;;;;;4.50;2.40;;;23.40;94.00;;;;;;6152824;23;20372;-65
2021/08/24 11:18:26;;;;;;;4.45;2.55;;;23.50;94.50;;;;;;6152919;23;20024;-64
2021/08/24 11:21:01;;;;;;;4.50;2.88;;;23.20;94.00;;;;;;6151457;23;20072;-64
2021/08/24 11:24:01;;;;;;;3.55;2.40;;;23.10;95.00;;;;;;6150088;23;20037;-63
2021/08/24 11:26:30;;;;;;;4.85;3.03;;;23.40;96.80;;;;;;6152504;23;20005;-64
2021/08/24 11:29:11;;;;;;;7.13;2.65;;;23.30;93.60;;;;;;6151465;23;20120;-64
2021/08/24 11:31:50;;;;;;;2.45;2.22;;;23.00;94.20;;;;;;6153015;23;20093;-64
2021/08/24 11:34:25;;;;;;;6.80;2.63;;;23.20;97.20;;;;;;6150773;23;20025;-64
2021/08/24 11:36:58;;;;;;;3.97;2.70;;;23.30;95.90;;;;;;6151182;23;20034;-65
2021/08/24 11:39:29;;;;;;;5.22;3.58;;;23.40;96.20;;;;;;6149797;23;20061;-65
2021/08/24 11:42:02;;;;;;;4.78;2.72;;;23.40;96.50;;;;;;6150861;23;20025;-65
2021/08/24 11:44:47;;;;;;;3.75;2.55;;;23.50;94.40;;;;;;6152623;23;20068;-65
2021/08/24 11:47:15;;;;;;;3.30;2.30;;;23.40;94.20;;;;;;6151337;23;20069;-65
2021/08/24 11:49:53;;;;;;;3.25;2.42;;;23.20;91.90;;;;;;6152042;23;20037;-65
2021/08/24 11:52:31;;;;;;;3.90;2.58;;;23.50;95.30;;;;;;6152434;23;20010;-64
2021/08/24 11:55:24;;;;;;;7.57;5.10;;;23.70;95.90;;;;;;6152119;23;20457;-65
2021/08/24 11:58:22;;;;;;;4.15;2.42;;;23.80;95.50;;;;;;6151959;23;20093;-65
2021/08/24 12:00:55;;;;;;;3.70;2.50;;;24.00;94.70;;;;;;6150516;23;20021;-65
2021/08/24 12:03:23;;;;;;;5.82;3.00;;;24.00;94.10;;;;;;6152303;23;20040;-65
2021/08/24 12:06:04;;;;;;;2.78;2.40;;;24.20;94.30;;;;;;6150005;23;20097;-66
2021/08/24 12:08:34;;;;;;;2.85;2.63;;;23.90;92.20;;;;;;6149559;23;20046;-65
2021/08/24 12:11:12;;;;;;;3.42;2.40;;;24.00;91.70;;;;;;6151624;23;20338;-65
2021/08/24 12:13:42;;;;;;;4.07;3.10;;;24.30;94.30;;;;;;6152845;23;20017;-65
2021/08/24 12:16:23;;;;;;;3.88;2.67;;;24.20;91.30;;;;;;6127557;23;20018;-63
2021/08/24 12:19:11;;;;;;;3.15;2.60;;;24.50;93.50;;;;;;6152700;23;20044;-63
2021/08/24 12:21:39;;;;;;;4.18;2.33;;;24.50;93.30;;;;;;6154166;23;20017;-63
2021/08/24 12:24:23;;;;;;;3.25;2.33;;;24.40;89.70;;;;;;6154577;23;20028;-65
2021/08/24 12:27:09;;;;;;;2.03;1.88;;;24.50;93.30;;;;;;6153992;23;20014;-64
2021/08/24 12:29:35;;;;;;;2.95;2.60;;;24.60;90.70;;;;;;6126627;23;20468;-64
2021/08/24 12:32:09;;;;;;;3.10;2.50;;;24.60;92.90;;;;;;6153138;23;20021;-64
2021/08/24 12:34:34;;;;;;;2.75;2.47;;;24.00;88.20;;;;;;6151475;23;20426;-65
2021/08/24 12:37:18;;;;;;;3.58;2.47;;;23.70;84.40;;;;;;6154118;23;20449;-66
2021/08/24 12:39:49;;;;;;;3.28;2.50;;;23.20;87.10;;;;;;6151236;23;20025;-65
2021/08/24 12:42:23;;;;;;;4.13;3.15;;;23.70;85.20;;;;;;6152837;23;20018;-65
2021/08/24 12:45:00;;;;;;;3.00;2.30;;;23.80;92.10;;;;;;6152613;23;20021;-65
2021/08/24 12:47:46;;;;;;;2.80;2.40;;;23.50;86.60;;;;;;6152864;23;20018;-65
2021/08/24 12:50:12;;;;;;;3.53;2.15;;;23.90;93.50;;;;;;6152002;23;20014;-65
2021/08/24 12:52:40;;;;;;;3.28;2.35;;;24.00;86.50;;;;;;6152166;23;20049;-65
2021/08/24 12:55:30;;;;;;;3.33;2.47;;;24.00;91.60;;;;;;6152159;23;20013;-65
2021/08/24 12:58:01;;;;;;;3.70;2.25;;;23.90;87.40;;;;;;6153821;23;20041;-65
2021/08/24 13:00:33;;;;;;;5.47;2.60;;;23.80;90.40;;;;;;6152358;23;20022;-65
2021/08/24 13:03:20;;;;;;;3.17;2.55;;;23.70;90.60;;;;;;6154139;23;20244;-65
2021/08/24 13:05:48;;;;;;;2.83;2.17;;;24.00;92.50;;;;;;6153838;23;20013;-65
2021/08/24 13:08:20;;;;;;;3.03;2.25;;;23.70;87.80;;;;;;6127040;23;20052;-65
2021/08/24 13:10:47;;;;;;;2.38;2.03;;;23.30;84.90;;;;;;6153741;23;20096;-64
2021/08/24 13:13:28;;;;;;;3.72;2.15;;;23.70;91.70;;;;;;6153585;23;20010;-65
2021/08/24 13:16:11;;;;;;;4.60;2.53;;;24.10;91.50;;;;;;6151280;23;20017;-65
2021/08/24 13:18:43;;;;;;;3.42;2.35;;;24.20;91.50;;;;;;6151764;23;20241;-66
2021/08/24 13:21:34;;;;;;;2.92;2.40;;;24.10;91.80;;;;;;6151922;23;20654;-65
2021/08/24 13:24:05;;;;;;;3.70;2.47;;;24.10;92.10;;;;;;6151326;23;20021;-65
2021/08/24 13:26:49;;;;;;;4.85;2.50;;;24.20;91.30;;;;;;6153816;23;20009;-65
2021/08/24 13:29:16;;;;;;;3.38;2.50;;;24.20;85.00;;;;;;6153965;23;20017;-65
2021/08/24 13:31:54;;;;;;;3.90;2.60;;;24.20;88.50;;;;;;6153269;23;20005;-65
2021/08/24 13:34:32;;;;;;;2.50;2.08;;;24.30;87.90;;;;;;6151951;23;20024;-65
2021/08/24 13:36:58;;;;;;;2.38;2.17;;;24.30;91.00;;;;;;6152795;23;20100;-63
2021/08/24 13:39:24;;;;;;;2.65;2.42;;;23.80;79.90;;;;;;6153989;23;20021;-64
2021/08/24 13:41:57;;;;;;;3.55;2.20;;;23.20;85.60;;;;;;6153964;23;20016;-65
2021/08/24 13:44:30;;;;;;;3.15;2.15;;;23.20;88.00;;;;;;6149975;23;20017;-67
2021/08/24 13:47:03;;;;;;;6.43;2.70;;;23.30;91.20;;;;;;6150704;23;20341;-67
2021/08/24 13:49:29;;;;;;;2.20;1.95;;;23.00;90.90;;;;;;6150926;23;20048;-66
2021/08/24 13:51:58;;;;;;;2.47;2.00;;;23.50;92.20;;;;;;6150390;23;20018;-66
2021/08/24 13:54:38;;;;;;;2.45;2.25;;;23.80;90.70;;;;;;6151666;23;20548;-67
2021/08/24 13:57:09;;;;;;;3.10;2.17;;;24.00;90.20;;;;;;6151208;23;20035;-67
2021/08/24 13:59:54;;;;;;;3.00;2.47;;;23.70;83.90;;;;;;6153783;23;20045;-67
2021/08/24 14:02:22;;;;;;;2.67;2.30;;;23.80;90.60;;;;;;6153288;23;20025;-67
2021/08/24 14:04:50;;;;;;;3.67;2.22;;;23.50;89.00;;;;;;6153359;23;20511;-66
2021/08/24 14:07:19;;;;;;;2.80;2.10;;;23.10;90.40;;;;;;6153437;23;20014;-66
2021/08/24 14:10:01;;;;;;;3.15;2.15;;;23.10;89.40;;;;;;6150595;23;20555;-66